createdAt,value
2023-03-11T00:03:32.863Z,100089.09
2023-03-11T00:08:35.071Z,100088.34
2023-03-11T00:13:37.370Z,100104.25
2023-03-11T00:18:39.267Z,100092.88
2023-03-11T00:23:41.179Z,100095.41
2023-03-11T00:28:43.203Z,100099.94
2023-03-11T00:33:45.075Z,100097.16
2023-03-11T00:38:47.267Z,100109.59
2023-03-11T00:43:50.266Z,100117.53
2023-03-11T00:48:52.571Z,100120.13
2023-03-11T00:53:54.378Z,100125.41
2023-03-11T00:58:56.465Z,100136.00
2023-03-11T01:03:58.563Z,100140.34
2023-03-11T01:09:00.602Z,100154.63
2023-03-11T01:14:02.527Z,100158.19
2023-03-11T01:19:04.867Z,100159.84
2023-03-11T01:24:06.725Z,100163.41
2023-03-11T01:29:08.797Z,100162.63
2023-03-11T01:34:10.851Z,100155.47
2023-03-11T01:39:12.738Z,100161.78
2023-03-11T01:44:14.586Z,100173.22
2023-03-11T01:49:16.531Z,100170.44
2023-03-11T01:54:28.789Z,100174.94
2023-03-11T01:59:33.811Z,100167.91
2023-03-11T02:04:37.026Z,100174.06
2023-03-11T02:09:39.129Z,100178.50
2023-03-11T02:14:45.952Z,100178.56
2023-03-11T02:20:20.084Z,100190.97
2023-03-11T02:25:37.553Z,100177.66
2023-03-11T02:30:43.157Z,100174.22
2023-03-11T02:35:45.385Z,100176.81
2023-03-11T02:40:48.654Z,100181.94
2023-03-11T02:45:50.881Z,100183.00
2023-03-11T02:50:53.622Z,100176.72
2023-03-11T02:55:55.579Z,100163.63
2023-03-11T03:00:57.456Z,100173.22
2023-03-11T03:05:59.483Z,100172.44
2023-03-11T03:11:01.642Z,100182.09
2023-03-11T03:16:03.967Z,100187.53
2023-03-11T03:21:06.126Z,100194.56
2023-03-11T03:26:08.080Z,100203.28
2023-03-11T03:31:10.763Z,100200.75
2023-03-11T03:36:14.818Z,100206.91
2023-03-11T03:41:16.994Z,100214.00
2023-03-11T03:46:19.076Z,100213.00
2023-03-11T03:51:20.912Z,100220.06
2023-03-11T03:56:22.951Z,100220.31
2023-03-11T04:01:24.747Z,100221.16
2023-03-11T04:06:27.583Z,100234.31
2023-03-11T04:11:30.052Z,100230.03
2023-03-11T04:16:32.443Z,100234.31
2023-03-11T04:21:34.386Z,100230.91
2023-03-11T04:26:36.611Z,100226.63
2023-03-11T04:31:38.700Z,100224.75
2023-03-11T04:36:41.044Z,100230.91
2023-03-11T04:41:43.183Z,100235.34
2023-03-11T04:46:45.200Z,100238.00
2023-03-11T04:51:47.061Z,100238.91
2023-03-11T04:56:48.902Z,100243.28
2023-03-11T05:01:50.812Z,100238.91
2023-03-11T05:06:52.791Z,100246.78
2023-03-11T05:11:54.768Z,100255.78
2023-03-11T05:16:56.823Z,100257.50
2023-03-11T05:21:59.377Z,100268.81
2023-03-11T05:27:02.367Z,100269.75
2023-03-11T05:32:04.413Z,100283.13
2023-03-11T05:37:06.797Z,100274.25
2023-03-11T05:42:08.920Z,100283.00
2023-03-11T05:47:11.307Z,100291.91
2023-03-11T05:52:13.318Z,100292.69
2023-03-11T05:57:15.252Z,100292.00
2023-03-11T06:02:17.518Z,100295.56
2023-03-11T06:07:19.208Z,100304.22
2023-03-11T06:12:21.340Z,100301.81
2023-03-11T06:17:23.642Z,100309.59
2023-03-11T06:22:25.553Z,100317.59
2023-03-11T06:27:27.566Z,100323.88
2023-03-11T06:32:30.276Z,100337.00
2023-03-11T06:37:32.307Z,100346.94
2023-03-11T06:42:34.610Z,100341.56
2023-03-11T06:47:36.693Z,100354.75
2023-03-11T06:52:38.602Z,100364.31
2023-03-11T06:57:40.524Z,100370.13
2023-03-11T07:02:42.515Z,100385.84
2023-03-11T07:07:44.596Z,100397.69
2023-03-11T07:12:46.411Z,100401.03
2023-03-11T07:17:48.567Z,100411.81
2023-03-11T07:22:50.568Z,100419.16
2023-03-11T07:27:52.680Z,100415.78
2023-03-11T07:32:54.542Z,100418.50
2023-03-11T07:37:56.811Z,100415.19
2023-03-11T07:42:58.770Z,100429.94
2023-03-11T07:48:00.722Z,100430.88
2023-03-11T07:53:02.601Z,100427.88
2023-03-11T07:58:04.548Z,100431.25
2023-03-11T08:03:06.275Z,100436.03
2023-03-11T08:08:08.150Z,100445.69
2023-03-11T08:13:09.939Z,100441.25
2023-03-11T08:18:12.003Z,100447.44
2023-03-11T08:23:14.205Z,100453.41
2023-03-11T08:28:16.498Z,100457.81
2023-03-11T08:33:18.575Z,100439.38
2023-03-11T08:38:20.859Z,100447.00
2023-03-11T08:43:23.048Z,100448.50
2023-03-11T08:48:26.000Z,100459.78
2023-03-11T08:53:27.841Z,100458.44
2023-03-11T08:58:30.211Z,100466.66
2023-03-11T09:03:33.980Z,100474.78
2023-03-11T09:08:36.173Z,100469.03
2023-03-11T09:13:41.373Z,100490.47
2023-03-11T09:18:43.545Z,100495.38
2023-03-11T09:23:45.619Z,100495.50
2023-03-11T09:28:50.377Z,100499.41
2023-03-11T09:33:53.182Z,100499.69
2023-03-11T09:38:55.188Z,100503.66
2023-03-11T09:44:18.301Z,100500.63
2023-03-11T09:49:55.251Z,100511.88
2023-03-11T09:54:58.105Z,100521.88
2023-03-11T10:00:03.122Z,100514.53
2023-03-11T10:05:14.221Z,100524.06
2023-03-11T10:10:18.286Z,100512.94
2023-03-11T10:15:26.010Z,100512.41
2023-03-11T10:20:58.172Z,100519.44
2023-03-11T10:26:42.764Z,100525.75
2023-03-11T10:31:55.204Z,100518.03
2023-03-11T10:37:00.101Z,100519.91
2023-03-11T10:42:15.693Z,100512.88
2023-03-11T10:47:19.873Z,100522.81
2023-03-11T10:52:21.750Z,100521.69
2023-03-11T10:57:33.094Z,100525.31
2023-03-11T11:02:49.747Z,100541.19
2023-03-11T11:08:02.797Z,100550.41
2023-03-11T11:13:13.410Z,100541.41
2023-03-11T11:18:35.879Z,100528.50
2023-03-11T11:23:42.908Z,100533.53
2023-03-11T11:28:44.946Z,100541.53
2023-03-11T11:33:57.161Z,100531.25
2023-03-11T11:39:05.450Z,100531.34
2023-03-11T11:44:07.807Z,100529.41
2023-03-11T11:49:21.556Z,100530.19
2023-03-11T11:54:36.513Z,100521.47
2023-03-11T11:59:38.562Z,100520.56
2023-03-11T12:04:58.562Z,100519.81
2023-03-11T12:10:23.575Z,100520.44
2023-03-11T12:15:39.161Z,100513.63
2023-03-11T12:20:47.807Z,100510.31
2023-03-11T12:26:06.245Z,100510.75
2023-03-11T12:31:10.884Z,100513.94
2023-03-11T12:36:29.202Z,100518.22
2023-03-11T12:41:43.053Z,100512.41
2023-03-11T12:46:54.179Z,100512.41
2023-03-11T12:52:14.825Z,100519.28
2023-03-11T12:57:16.795Z,100522.25
2023-03-11T13:02:47.808Z,100506.59
2023-03-11T13:08:12.228Z,100499.69
2023-03-11T13:13:50.692Z,100496.72
2023-03-11T13:18:52.774Z,100502.94
2023-03-11T13:24:19.430Z,100500.50
2023-03-11T13:29:56.017Z,100481.97
2023-03-11T13:35:33.968Z,100484.75
2023-03-11T13:40:41.834Z,100481.91
2023-03-11T13:45:51.500Z,100495.34
2023-03-11T13:51:01.517Z,100489.84
2023-03-11T13:56:04.767Z,100478.47
2023-03-11T14:01:06.901Z,100488.47
2023-03-11T14:06:22.019Z,100503.53
2023-03-11T14:11:29.505Z,100493.94
2023-03-11T14:16:44.399Z,100496.22
2023-03-11T14:21:50.353Z,100492.88
2023-03-11T14:26:56.901Z,100494.41
2023-03-11T14:31:58.972Z,100487.25
2023-03-11T14:37:04.284Z,100490.78
2023-03-11T14:42:21.928Z,100507.47
2023-03-11T14:47:45.149Z,100508.13
2023-03-11T14:53:09.335Z,100515.00
2023-03-11T14:58:19.164Z,100514.00
2023-03-11T15:03:27.021Z,100510.50
2023-03-11T15:08:33.977Z,100517.28
2023-03-11T15:13:36.786Z,100508.22
2023-03-11T15:18:38.825Z,100509.91
2023-03-11T15:23:49.824Z,100508.84
2023-03-11T15:29:02.741Z,100506.28
2023-03-11T15:34:10.424Z,100507.00
2023-03-11T15:39:19.742Z,100506.13
2023-03-11T15:44:27.283Z,100510.06
2023-03-11T15:49:31.900Z,100503.69
2023-03-11T15:54:34.097Z,100501.78
2023-03-11T15:59:37.851Z,100504.63
2023-03-11T16:04:39.937Z,100509.13
2023-03-11T16:09:45.912Z,100511.06
2023-03-11T16:14:49.203Z,100520.91
2023-03-11T16:19:51.148Z,100519.16
2023-03-11T16:24:54.083Z,100525.44
2023-03-11T16:29:56.437Z,100516.78
2023-03-11T16:34:58.304Z,100507.69
2023-03-11T16:40:00.378Z,100511.34
2023-03-11T16:45:04.094Z,100507.84
2023-03-11T16:50:07.505Z,100509.81
2023-03-11T16:55:09.703Z,100513.25
2023-03-11T17:00:13.775Z,100510.31
2023-03-11T17:05:16.032Z,100513.84
2023-03-11T17:10:18.320Z,100518.75
2023-03-11T17:15:20.479Z,100512.84
2023-03-11T17:20:22.372Z,100508.31
2023-03-11T17:25:24.290Z,100510.22
2023-03-11T17:30:36.349Z,100513.13
2023-03-11T17:35:39.351Z,100514.50
2023-03-11T17:40:44.486Z,100518.16
2023-03-11T17:45:46.531Z,100526.75
2023-03-11T17:50:48.716Z,100525.16
2023-03-11T17:55:50.957Z,100528.00
2023-03-11T18:00:53.228Z,100534.78
2023-03-11T18:05:57.773Z,100535.00
2023-03-11T18:11:03.269Z,100542.72
2023-03-11T18:16:11.899Z,100556.94
2023-03-11T18:21:25.409Z,100565.03
2023-03-11T18:26:29.496Z,100558.78
2023-03-11T18:31:32.005Z,100562.38
2023-03-11T18:36:37.022Z,100562.66
2023-03-11T18:41:39.240Z,100564.06
2023-03-11T18:46:42.662Z,100563.19
2023-03-11T18:51:44.514Z,100565.03
2023-03-11T18:56:46.522Z,100573.91
2023-03-11T19:01:51.141Z,100565.47
2023-03-11T19:06:53.168Z,100572.31
2023-03-11T19:11:55.075Z,100573.44
2023-03-11T19:16:57.047Z,100570.53
2023-03-11T19:21:58.849Z,100580.19
2023-03-11T19:27:00.840Z,100573.56
2023-03-11T19:32:12.186Z,100578.19
2023-03-11T19:37:14.148Z,100587.00
2023-03-11T19:42:15.989Z,100592.28
2023-03-11T19:47:18.029Z,100586.63
2023-03-11T19:52:20.263Z,100585.53
2023-03-11T19:57:22.367Z,100581.06
2023-03-11T20:02:24.533Z,100587.81
2023-03-11T20:07:26.685Z,100587.00
2023-03-11T20:12:28.699Z,100581.56
2023-03-11T20:17:30.618Z,100586.88
2023-03-11T20:22:32.453Z,100595.88
2023-03-11T20:27:34.252Z,100594.13
2023-03-11T20:32:36.303Z,100585.88
2023-03-11T20:37:38.199Z,100579.13
2023-03-11T20:42:40.735Z,100581.38
2023-03-11T20:47:44.192Z,100588.69
2023-03-11T20:52:46.480Z,100577.41
2023-03-11T20:57:48.317Z,100574.81
2023-03-11T21:02:50.501Z,100577.81
2023-03-11T21:07:52.684Z,100580.13
2023-03-11T21:12:54.956Z,100583.09
2023-03-11T21:17:56.844Z,100576.94
2023-03-11T21:22:58.909Z,100566.28
2023-03-11T21:28:00.874Z,100558.59
2023-03-11T21:33:03.192Z,100556.94
2023-03-11T21:38:05.131Z,100554.31
2023-03-11T21:43:07.090Z,100552.59
2023-03-11T21:48:09.927Z,100557.78
2023-03-11T21:53:12.045Z,100563.41
2023-03-11T21:58:14.933Z,100563.59
2023-03-11T22:03:16.899Z,100572.25
2023-03-11T22:08:18.867Z,100571.34
2023-03-11T22:13:21.817Z,100562.63
2023-03-11T22:18:23.746Z,100562.81
2023-03-11T22:23:26.087Z,100556.63
2023-03-11T22:28:28.998Z,100550.66
2023-03-11T22:33:30.941Z,100555.16
2023-03-11T22:38:34.400Z,100549.53
2023-03-11T22:43:37.087Z,100547.34
2023-03-11T22:48:38.979Z,100546.97
2023-03-11T22:53:41.200Z,100546.91
2023-03-11T22:58:43.460Z,100547.75
2023-03-11T23:03:45.945Z,100550.34
2023-03-11T23:08:48.638Z,100544.09
2023-03-11T23:13:51.189Z,100540.59
2023-03-11T23:18:55.348Z,100534.31
2023-03-11T23:23:58.534Z,100536.06
2023-03-11T23:29:01.787Z,100533.47
2023-03-11T23:34:03.937Z,100537.75
2023-03-11T23:39:05.984Z,100538.56
2023-03-11T23:44:07.753Z,100525.47
2023-03-11T23:49:09.932Z,100525.47
2023-03-11T23:54:12.058Z,100518.28
2023-03-11T23:59:13.919Z,100512.88
